createdAt,value
2022-12-18T00:01:54.937Z,64.88
2022-12-18T00:07:00.052Z,64.52
2022-12-18T00:17:17.500Z,64.88
2022-12-18T00:22:19.304Z,64.80
2022-12-18T00:27:20.972Z,64.71
2022-12-18T00:32:22.728Z,65.12
2022-12-18T00:37:25.414Z,64.71
2022-12-18T00:42:45.576Z,64.43
2022-12-18T00:47:47.760Z,64.44
2022-12-18T00:52:49.839Z,64.83
2022-12-18T00:57:53.345Z,64.82
2022-12-18T01:02:55.194Z,64.38
2022-12-18T01:07:57.416Z,64.79
2022-12-18T01:12:59.127Z,64.69
2022-12-18T01:18:00.854Z,64.72
2022-12-18T01:23:03.534Z,64.87
2022-12-18T01:28:11.272Z,64.60
2022-12-18T01:33:13.019Z,64.50
2022-12-18T01:38:14.662Z,64.54
2022-12-18T01:43:16.311Z,64.00
2022-12-18T01:48:17.980Z,64.51
2022-12-18T01:53:22.665Z,64.29
2022-12-18T01:58:49.354Z,64.47
2022-12-18T02:03:52.480Z,64.23
2022-12-18T02:09:07.255Z,64.00
2022-12-18T02:14:44.132Z,63.49
2022-12-18T02:19:57.939Z,63.78
2022-12-18T02:25:22.507Z,63.93
2022-12-18T02:30:24.734Z,63.70
2022-12-18T02:35:30.525Z,63.85
2022-12-18T02:40:32.889Z,63.97
2022-12-18T02:45:34.625Z,63.89
2022-12-18T02:50:44.801Z,63.51
2022-12-18T02:56:12.682Z,63.35
2022-12-18T03:01:25.565Z,63.77
2022-12-18T03:06:44.585Z,63.89
2022-12-18T03:12:14.212Z,63.65
2022-12-18T03:17:21.255Z,63.34
2022-12-18T03:22:25.951Z,63.35
2022-12-18T03:27:30.826Z,64.00
2022-12-18T03:38:54.964Z,63.41
2022-12-18T03:44:29.868Z,63.68
2022-12-18T03:50:09.600Z,63.51
2022-12-18T03:55:14.192Z,63.60
2022-12-18T04:00:19.152Z,63.08
2022-12-18T04:05:22.900Z,63.42
2022-12-18T04:10:24.620Z,63.63
2022-12-18T04:15:26.446Z,63.57
2022-12-18T04:20:28.131Z,63.16
2022-12-18T04:25:30.069Z,62.90
2022-12-18T04:30:31.730Z,63.10
2022-12-18T04:35:33.327Z,62.99
2022-12-18T04:40:36.699Z,63.21
2022-12-18T04:45:38.405Z,63.22
2022-12-18T04:50:40.025Z,63.33
2022-12-18T04:55:42.580Z,63.53
2022-12-18T05:00:44.240Z,63.47
2022-12-18T05:05:45.896Z,63.49
2022-12-18T05:10:47.544Z,63.43
2022-12-18T05:15:53.659Z,63.39
2022-12-18T05:20:55.898Z,63.64
2022-12-18T05:26:00.631Z,63.50
2022-12-18T05:31:04.203Z,63.48
2022-12-18T05:36:08.608Z,63.46
2022-12-18T05:41:10.380Z,63.55
2022-12-18T05:46:17.574Z,63.51
2022-12-18T05:51:21.182Z,63.70
2022-12-18T05:56:24.096Z,63.64
2022-12-18T06:01:27.718Z,63.86
2022-12-18T06:06:29.989Z,64.00
2022-12-18T06:11:31.603Z,64.05
2022-12-18T06:16:33.860Z,64.28
2022-12-18T06:21:35.768Z,64.14
2022-12-18T06:26:39.890Z,63.93
2022-12-18T06:31:41.626Z,63.05
2022-12-18T06:36:43.348Z,63.42
2022-12-18T06:41:45.774Z,63.49
2022-12-18T06:46:47.555Z,63.14
2022-12-18T06:51:49.159Z,63.00
2022-12-18T06:56:50.876Z,62.73
2022-12-18T07:01:52.863Z,63.02
2022-12-18T07:06:54.612Z,63.02
2022-12-18T07:11:57.160Z,62.82
2022-12-18T07:16:59.647Z,62.78
2022-12-18T07:22:02.643Z,62.47
2022-12-18T07:27:04.797Z,62.71
2022-12-18T07:32:34.374Z,61.69
2022-12-18T07:37:36.999Z,62.05
2022-12-18T07:42:38.852Z,62.46
2022-12-18T07:47:42.292Z,62.49
2022-12-18T07:52:44.054Z,62.49
2022-12-18T07:57:51.285Z,62.12
2022-12-18T08:02:54.530Z,61.94
2022-12-18T08:07:57.480Z,62.10
2022-12-18T08:13:04.704Z,61.96
2022-12-18T08:18:10.179Z,62.02
2022-12-18T08:23:15.688Z,61.71
2022-12-18T08:28:17.436Z,61.82
2022-12-18T08:33:19.365Z,61.61
2022-12-18T08:38:21.158Z,61.59
2022-12-18T08:43:41.687Z,61.00
2022-12-18T08:48:44.690Z,61.15
2022-12-18T08:53:47.237Z,61.17
2022-12-18T08:58:48.900Z,60.98
2022-12-18T09:03:52.372Z,61.01
2022-12-18T09:08:54.299Z,60.93
2022-12-18T09:13:57.440Z,61.04
2022-12-18T09:19:00.952Z,60.85
2022-12-18T09:24:03.357Z,61.16
2022-12-18T09:29:05.671Z,60.97
2022-12-18T09:34:08.798Z,60.83
2022-12-18T09:39:10.501Z,60.48
2022-12-18T09:44:19.399Z,60.26
2022-12-18T09:49:26.523Z,60.49
2022-12-18T09:54:37.023Z,60.51
2022-12-18T10:06:13.134Z,59.70
2022-12-18T10:11:41.430Z,59.17
2022-12-18T10:16:55.920Z,59.76
2022-12-18T10:22:12.249Z,59.86
2022-12-18T10:27:17.179Z,59.73
2022-12-18T10:32:21.856Z,59.49
2022-12-18T10:37:26.671Z,59.16
2022-12-18T10:42:28.344Z,59.05
2022-12-18T10:47:30.220Z,59.18
2022-12-18T10:52:32.052Z,59.18
2022-12-18T10:57:42.715Z,58.90
2022-12-18T11:02:44.677Z,59.18
2022-12-18T11:07:51.815Z,59.02
2022-12-18T11:12:54.677Z,59.02
2022-12-18T11:17:56.949Z,59.08
2022-12-18T11:23:12.338Z,59.20
2022-12-18T11:29:24.143Z,59.47
2022-12-18T11:34:32.223Z,59.54
2022-12-18T11:39:43.307Z,59.35
2022-12-18T11:45:00.014Z,59.43
2022-12-18T11:50:03.746Z,59.36
2022-12-18T11:55:13.179Z,59.47
2022-12-18T12:00:20.698Z,59.19
2022-12-18T12:05:52.341Z,59.48
2022-12-18T12:11:09.069Z,59.74
2022-12-18T12:16:42.046Z,58.66
2022-12-18T12:22:18.592Z,59.63
2022-12-18T12:27:35.127Z,59.51
2022-12-18T12:32:50.779Z,59.52
2022-12-18T12:38:07.307Z,59.15
2022-12-18T12:43:50.529Z,58.79
2022-12-18T12:49:16.943Z,59.10
2022-12-18T12:54:25.767Z,59.19
2022-12-18T12:59:49.392Z,58.87
2022-12-18T13:05:19.035Z,59.10
2022-12-18T13:10:27.106Z,59.14
2022-12-18T13:21:03.259Z,60.17
2022-12-18T13:26:11.515Z,60.48
2022-12-18T13:31:41.825Z,60.59
2022-12-18T13:36:43.836Z,60.88
2022-12-18T13:41:50.038Z,60.85
2022-12-18T13:46:53.637Z,60.83
2022-12-18T13:51:57.494Z,60.79
2022-12-18T13:57:01.840Z,61.00
2022-12-18T14:02:14.901Z,61.26
2022-12-18T14:07:20.669Z,61.50
2022-12-18T14:12:46.426Z,61.31
2022-12-18T14:17:52.050Z,61.53
2022-12-18T14:22:54.091Z,61.80
2022-12-18T14:28:08.487Z,61.61
2022-12-18T14:33:21.591Z,61.81
2022-12-18T14:38:40.994Z,61.92
2022-12-18T14:43:45.248Z,62.02
2022-12-18T14:48:49.086Z,61.87
2022-12-18T14:54:16.090Z,62.29
2022-12-18T14:59:24.642Z,62.36
2022-12-18T15:04:31.831Z,62.71
2022-12-18T15:09:33.732Z,62.65
2022-12-18T15:14:42.011Z,63.13
2022-12-18T15:19:46.623Z,63.11
2022-12-18T15:24:49.032Z,63.50
2022-12-18T15:30:09.661Z,64.15
2022-12-18T15:35:26.834Z,64.09
2022-12-18T15:40:47.384Z,63.64
2022-12-18T15:46:12.835Z,63.48
2022-12-18T15:51:22.882Z,63.25
2022-12-18T15:56:44.836Z,63.34
2022-12-18T16:01:49.387Z,63.30
2022-12-18T16:07:14.326Z,63.55
2022-12-18T16:12:23.374Z,64.20
2022-12-18T16:17:25.749Z,63.51
2022-12-18T16:22:29.670Z,63.90
2022-12-18T16:27:31.931Z,63.85
2022-12-18T16:32:34.947Z,63.44
2022-12-18T16:37:37.271Z,63.24
2022-12-18T16:42:41.366Z,62.99
2022-12-18T16:47:43.594Z,62.84
2022-12-18T16:52:45.300Z,62.94
2022-12-18T16:57:47.157Z,62.94
2022-12-18T17:02:48.919Z,62.94
2022-12-18T17:07:50.794Z,62.77
2022-12-18T17:12:52.714Z,63.01
2022-12-18T17:17:54.348Z,63.18
2022-12-18T17:22:59.281Z,63.25
2022-12-18T17:28:02.634Z,63.33
2022-12-18T17:33:04.692Z,63.13
2022-12-18T17:38:07.182Z,63.01
2022-12-18T17:43:10.028Z,63.29
2022-12-18T17:48:12.392Z,63.10
2022-12-18T17:53:17.561Z,63.27
2022-12-18T17:58:19.317Z,63.37
2022-12-18T18:03:21.723Z,63.31
2022-12-18T18:08:24.662Z,63.21
2022-12-18T18:13:47.126Z,63.28
2022-12-18T18:18:49.090Z,63.72
2022-12-18T18:23:52.389Z,63.56
2022-12-18T18:28:55.919Z,63.63
2022-12-18T18:33:59.375Z,63.82
2022-12-18T18:39:02.389Z,63.67
2022-12-18T18:44:06.282Z,64.06
2022-12-18T18:49:08.452Z,64.01
2022-12-18T18:54:11.507Z,63.91
2022-12-18T18:59:15.660Z,63.88
2022-12-18T19:04:17.415Z,63.88
2022-12-18T19:09:23.265Z,63.82
2022-12-18T19:14:25.230Z,63.71
2022-12-18T19:19:27.350Z,64.03
2022-12-18T19:24:29.431Z,64.02
2022-12-18T19:29:31.137Z,63.90
2022-12-18T19:34:34.513Z,63.83
2022-12-18T19:39:36.247Z,63.95
2022-12-18T19:44:38.100Z,64.04
2022-12-18T19:49:39.957Z,63.86
2022-12-18T19:54:43.834Z,63.60
2022-12-18T19:59:45.594Z,63.59
2022-12-18T20:04:49.896Z,63.70
2022-12-18T20:09:59.594Z,63.81
2022-12-18T20:15:04.856Z,63.57
2022-12-18T20:20:07.215Z,63.37
2022-12-18T20:25:10.671Z,63.38
2022-12-18T20:30:13.679Z,63.31
2022-12-18T20:35:18.115Z,63.60
2022-12-18T20:40:20.668Z,63.57
2022-12-18T20:45:23.174Z,63.62
2022-12-18T20:50:24.978Z,63.89
2022-12-18T20:55:26.735Z,63.93
2022-12-18T21:00:29.339Z,63.75
2022-12-18T21:05:31.132Z,63.97
2022-12-18T21:10:34.353Z,63.80
2022-12-18T21:15:36.920Z,63.94
2022-12-18T21:20:38.579Z,63.77
2022-12-18T21:25:40.229Z,64.03
2022-12-18T21:30:41.938Z,64.02
2022-12-18T21:35:43.601Z,63.95
2022-12-18T21:40:45.307Z,63.98
2022-12-18T21:45:47.209Z,63.83
2022-12-18T21:50:48.947Z,63.86
2022-12-18T21:56:00.457Z,63.79
2022-12-18T22:01:02.242Z,63.88
2022-12-18T22:06:09.515Z,63.77
2022-12-18T22:11:12.692Z,63.75
2022-12-18T22:16:14.351Z,63.69
2022-12-18T22:21:34.586Z,64.00
2022-12-18T22:26:40.148Z,63.88
2022-12-18T22:31:42.276Z,63.95
2022-12-18T22:36:46.759Z,63.75
2022-12-18T22:41:48.831Z,63.89
2022-12-18T22:46:56.234Z,63.95
2022-12-18T22:52:09.541Z,63.84
2022-12-18T22:57:11.277Z,63.60
2022-12-18T23:02:13.106Z,63.74
2022-12-18T23:07:15.647Z,63.44
2022-12-18T23:12:18.771Z,63.58
2022-12-18T23:17:20.459Z,63.69
2022-12-18T23:22:22.179Z,64.06
2022-12-18T23:27:23.825Z,63.77
2022-12-18T23:32:25.589Z,63.88
2022-12-18T23:37:50.231Z,64.06
2022-12-18T23:42:48.724Z,63.77
2022-12-18T23:47:51.295Z,63.95
2022-12-18T23:52:53.128Z,63.91
2022-12-18T23:57:54.802Z,63.81
